Time;durP1;ratioP1;P1;durP2;ratioP2;P2;SDS_P1;SDS_P2;PMS_P1;PMS_P2;Temp;Humidity;BMP_temperature;BMP_pressure;BME280_temperature;BME280_humidity;BME280_pressure;Samples;Min_cycle;Max_cycle;Signal;HPM_P1;HPM_P2
2023/07/30 00:01:13;;;;;;;5.10;3.70;;;;;;;26.10;52.29;100129.48;108454;1277;21978;-63
2023/07/30 00:03:39;;;;;;;5.70;3.40;;;;;;;26.11;52.15;100125.13;108416;1281;21980;-64
2023/07/30 00:06:04;;;;;;;6.80;3.40;;;;;;;26.10;52.42;100125.01;108443;1281;22000;-62
2023/07/30 00:08:30;;;;;;;11.00;3.60;;;;;;;26.04;52.39;100121.02;108418;1271;22108;-63
2023/07/30 00:10:58;;;;;;;8.20;3.60;;;;;;;25.99;52.45;100121.48;108454;1270;21999;-72
2023/07/30 00:13:25;;;;;;;6.20;4.00;;;;;;;25.94;52.80;100122.77;108463;1276;21986;-63
2023/07/30 00:15:53;;;;;;;5.40;3.60;;;;;;;25.90;52.93;100120.92;108479;1270;24080;-72
2023/07/30 00:18:19;;;;;;;5.80;3.10;;;;;;;25.86;53.49;100119.08;108471;1276;22450;-73
2023/07/30 00:20:44;;;;;;;8.10;3.60;;;;;;;25.82;53.47;100121.92;108476;1277;22019;-72
2023/07/30 00:23:10;;;;;;;6.20;3.70;;;;;;;25.78;53.90;100120.45;108407;1281;21993;-63
2023/07/30 00:25:35;;;;;;;5.50;3.20;;;;;;;25.75;53.95;100118.54;108437;1276;21983;-72
2023/07/30 00:28:01;;;;;;;7.10;3.00;;;;;;;25.74;54.00;100119.71;108442;1281;21993;-63
2023/07/30 00:30:26;;;;;;;8.50;3.60;;;;;;;25.75;54.08;100121.40;108467;1282;21983;-63
2023/07/30 00:32:52;;;;;;;7.50;3.80;;;;;;;25.76;54.16;100123.80;108492;1281;22002;-68
2023/07/30 00:35:18;;;;;;;11.60;4.40;;;;;;;25.78;53.97;100122.80;108468;1277;21988;-73
2023/07/30 00:37:43;;;;;;;10.50;3.50;;;;;;;25.79;54.00;100122.17;108424;1276;22070;-72
2023/07/30 00:40:09;;;;;;;9.10;3.70;;;;;;;25.78;53.95;100120.99;108497;1271;21993;-72
2023/07/30 00:42:35;;;;;;;10.00;3.70;;;;;;;25.76;54.27;100116.30;108424;1277;21981;-63
2023/07/30 00:45:01;;;;;;;8.70;3.60;;;;;;;25.73;54.02;100113.64;108469;1280;21989;-73
2023/07/30 00:47:26;;;;;;;9.90;4.30;;;;;;;25.71;53.71;100115.80;108401;1281;22012;-72
2023/07/30 00:49:52;;;;;;;8.00;3.60;;;;;;;25.70;53.46;100111.88;108453;1277;21984;-61
2023/07/30 00:52:18;;;;;;;5.60;3.10;;;;;;;25.70;53.56;100108.84;108304;1278;21989;-72
2023/07/30 00:54:44;;;;;;;9.60;3.70;;;;;;;25.71;53.45;100108.03;108327;1280;21987;-72
2023/07/30 00:57:10;;;;;;;6.10;3.60;;;;;;;25.69;53.29;100106.73;108255;1276;21986;-63
2023/07/30 00:59:35;;;;;;;7.30;3.60;;;;;;;25.66;53.30;100108.95;108229;1276;21984;-72
2023/07/30 01:02:02;;;;;;;10.50;3.80;;;;;;;25.61;53.09;100104.67;108296;1281;22004;-73
2023/07/30 01:04:28;;;;;;;10.30;4.00;;;;;;;25.57;53.21;100102.76;108266;1282;22002;-63
2023/07/30 01:06:54;;;;;;;7.20;4.20;;;;;;;25.52;53.36;100104.16;108253;1277;21992;-64
2023/07/30 01:09:20;;;;;;;8.40;3.90;;;;;;;25.49;53.29;100103.68;108392;1280;21990;-62
2023/07/30 01:11:45;;;;;;;9.00;4.10;;;;;;;25.45;53.42;100103.26;108417;1277;21992;-62
2023/07/30 01:14:11;;;;;;;9.70;3.90;;;;;;;25.42;53.39;100102.59;108137;1284;21986;-72
2023/07/30 01:16:37;;;;;;;5.80;3.50;;;;;;;25.39;53.48;100100.45;108176;1282;22021;-63
2023/07/30 01:19:04;;;;;;;8.10;3.50;;;;;;;25.37;53.30;100106.20;108191;1277;22080;-73
2023/07/30 01:21:36;;;;;;;6.40;3.50;;;;;;;25.35;53.33;100110.89;108326;1276;22016;-72
2023/07/30 01:24:02;;;;;;;10.90;4.00;;;;;;;25.32;53.35;100109.70;108361;1279;21988;-71
2023/07/30 01:26:40;;;;;;;8.90;3.80;;;;;;;25.27;53.36;100107.70;108390;1282;21985;-73
2023/07/30 01:29:12;;;;;;;5.40;3.60;;;;;;;25.24;53.43;100109.36;108361;1282;22764;-63
2023/07/30 01:31:37;;;;;;;8.50;3.60;;;;;;;25.23;53.53;100108.00;108331;1282;24228;-73
2023/07/30 01:34:03;;;;;;;8.50;3.80;;;;;;;25.21;53.51;100108.16;108259;1278;21984;-63
2023/07/30 01:36:29;;;;;;;7.00;3.00;;;;;;;25.19;53.44;100107.45;108133;1283;21978;-73
2023/07/30 01:38:54;;;;;;;6.50;3.40;;;;;;;25.19;53.52;100104.41;108161;1279;21989;-69
2023/07/30 01:41:20;;;;;;;5.00;3.20;;;;;;;25.21;53.32;100104.23;108319;1276;21989;-62
2023/07/30 01:43:45;;;;;;;5.90;3.10;;;;;;;25.22;53.36;100103.77;108343;1282;21998;-63
2023/07/30 01:46:11;;;;;;;5.60;2.80;;;;;;;25.22;53.40;100107.23;108354;1277;22014;-63
2023/07/30 01:48:36;;;;;;;6.20;3.00;;;;;;;25.20;53.41;100110.59;108357;1282;21992;-71
2023/07/30 01:51:02;;;;;;;6.80;3.20;;;;;;;25.15;53.55;100112.95;108388;1277;21998;-63
2023/07/30 01:53:27;;;;;;;7.30;3.20;;;;;;;25.09;53.62;100113.02;108427;1277;21994;-73
2023/07/30 01:55:53;;;;;;;7.80;3.40;;;;;;;25.04;53.80;100110.54;108492;1281;21985;-73
2023/07/30 01:58:18;;;;;;;8.10;3.30;;;;;;;25.01;53.89;100111.86;108459;1281;21978;-63
2023/07/30 02:00:44;;;;;;;7.30;3.30;;;;;;;24.98;53.49;100110.48;108446;1276;21986;-73
2023/07/30 02:03:10;;;;;;;6.50;3.00;;;;;;;24.98;53.46;100111.02;108149;1280;22020;-73
2023/07/30 02:05:35;;;;;;;7.70;3.20;;;;;;;25.01;53.49;100112.79;108365;1282;22021;-62
2023/07/30 02:08:01;;;;;;;7.60;3.20;;;;;;;25.00;53.35;100111.92;108362;1273;21985;-73
2023/07/30 02:10:26;;;;;;;9.40;3.60;;;;;;;24.99;53.23;100109.54;108361;1282;22559;-62
2023/07/30 02:12:52;;;;;;;6.50;3.10;;;;;;;24.97;53.39;100112.39;108422;1277;21985;-73
2023/07/30 02:15:17;;;;;;;8.00;3.30;;;;;;;24.94;53.42;100108.09;108441;1274;21990;-63
2023/07/30 02:17:43;;;;;;;7.10;3.70;;;;;;;24.93;53.51;100114.84;108495;1281;22163;-63
2023/07/30 02:20:09;;;;;;;5.90;3.50;;;;;;;24.89;53.33;100120.33;108455;1281;21983;-74
2023/07/30 02:22:34;;;;;;;7.00;3.50;;;;;;;24.84;53.19;100122.32;108361;1281;22018;-73
2023/07/30 02:25:00;;;;;;;7.30;3.30;;;;;;;24.81;53.27;100124.73;108391;1281;22094;-73
2023/07/30 02:27:25;;;;;;;9.70;3.50;;;;;;;24.77;53.28;100128.02;108412;1280;21997;-73
2023/07/30 02:29:51;;;;;;;7.10;3.60;;;;;;;24.77;53.19;100133.64;108199;1277;21983;-62
2023/07/30 02:32:16;;;;;;;6.50;3.60;;;;;;;24.76;53.23;100136.19;108414;1277;21983;-62
2023/07/30 02:34:42;;;;;;;6.60;3.30;;;;;;;24.75;53.44;100133.59;108419;1280;21984;-63
2023/07/30 02:37:08;;;;;;;8.20;2.80;;;;;;;24.72;53.28;100132.02;108361;1276;21986;-74
2023/07/30 02:39:33;;;;;;;7.60;3.50;;;;;;;24.67;53.20;100136.52;108383;1277;21992;-73
2023/07/30 02:41:59;;;;;;;5.50;3.10;;;;;;;24.62;53.00;100136.89;108431;1274;21990;-62
2023/07/30 02:44:24;;;;;;;4.90;3.00;;;;;;;24.59;53.15;100136.20;108407;1274;21993;-74
2023/07/30 02:46:50;;;;;;;5.00;2.80;;;;;;;24.55;53.29;100137.20;108382;1279;21988;-73
2023/07/30 02:49:15;;;;;;;10.90;3.30;;;;;;;24.53;53.27;100137.38;108399;1277;22018;-61
2023/07/30 02:51:43;;;;;;;7.10;3.40;;;;;;;24.50;53.18;100134.70;108421;1281;22244;-62
2023/07/30 02:54:09;;;;;;;6.50;2.90;;;;;;;24.50;53.27;100135.98;108448;1276;21988;-74
2023/07/30 02:56:35;;;;;;;6.10;3.30;;;;;;;24.50;53.53;100138.67;108407;1280;22022;-73
2023/07/30 02:59:01;;;;;;;7.60;2.90;;;;;;;24.49;53.52;100140.15;108365;1276;22046;-73
2023/07/30 03:01:26;;;;;;;4.30;3.00;;;;;;;24.49;53.58;100137.09;108359;1278;21986;-62
2023/07/30 03:03:52;;;;;;;5.80;3.20;;;;;;;24.50;53.60;100133.44;108466;1276;21985;-74
2023/07/30 03:06:17;;;;;;;7.10;3.30;;;;;;;24.52;53.64;100135.12;108333;1282;21980;-62
2023/07/30 03:08:43;;;;;;;6.90;3.10;;;;;;;24.53;53.74;100133.97;108396;1277;21991;-73
2023/07/30 03:11:09;;;;;;;7.10;3.30;;;;;;;24.52;53.60;100135.27;108422;1282;21981;-61
2023/07/30 03:13:34;;;;;;;4.30;2.90;;;;;;;24.52;53.70;100136.72;108471;1274;21991;-71
2023/07/30 03:16:00;;;;;;;6.50;3.00;;;;;;;24.53;53.78;100135.95;108563;1277;21985;-62
2023/07/30 03:18:25;;;;;;;5.70;2.90;;;;;;;24.54;53.79;100134.23;108491;1280;21983;-73
2023/07/30 03:20:51;;;;;;;6.10;3.70;;;;;;;24.55;53.88;100130.91;108440;1277;22021;-72
2023/07/30 03:23:19;;;;;;;5.70;3.10;;;;;;;24.57;54.01;100135.63;108510;1270;21990;-62
2023/07/30 03:25:45;;;;;;;11.50;4.00;;;;;;;24.58;54.07;100137.72;108492;1270;22052;-73
2023/07/30 03:28:10;;;;;;;11.70;3.70;;;;;;;24.60;54.04;100142.02;108510;1281;22009;-73
2023/07/30 03:30:36;;;;;;;12.10;4.30;;;;;;;24.67;53.85;100144.23;108439;1282;22056;-62
2023/07/30 03:33:02;;;;;;;16.20;4.10;;;;;;;24.65;54.31;100145.80;108412;1282;21984;-74
2023/07/30 03:35:27;;;;;;;12.80;3.60;;;;;;;24.63;55.19;100151.64;108461;1277;23609;-62
2023/07/30 03:37:53;;;;;;;10.00;3.30;;;;;;;24.74;54.96;100151.44;108444;1270;21953;-73
2023/07/30 03:40:18;;;;;;;10.70;3.60;;;;;;;24.75;55.25;100153.48;108455;1277;21988;-73
2023/07/30 03:42:44;;;;;;;15.80;3.80;;;;;;;24.81;55.73;100150.89;108488;1281;22163;-61
2023/07/30 03:45:09;;;;;;;10.70;3.50;;;;;;;24.87;56.02;100151.85;108466;1282;21993;-72
2023/07/30 03:47:35;;;;;;;13.90;3.20;;;;;;;24.95;56.09;100149.33;108582;1277;22450;-72
2023/07/30 03:50:01;;;;;;;7.10;3.20;;;;;;;25.06;56.22;100145.21;108452;1277;21992;-61
2023/07/30 03:52:26;;;;;;;8.40;3.20;;;;;;;25.17;56.09;100146.51;108414;1281;22024;-61
2023/07/30 03:54:52;;;;;;;10.80;3.50;;;;;;;25.25;56.06;100144.63;108443;1280;22024;-73
2023/07/30 03:57:18;;;;;;;9.60;3.80;;;;;;;25.36;56.06;100146.86;108634;1281;22006;-74
2023/07/30 03:59:45;;;;;;;7.70;2.80;;;;;;;25.56;55.80;100144.28;108769;1276;21989;-62
2023/07/30 04:02:15;;;;;;;7.80;3.10;;;;;;;25.62;56.04;100143.05;108696;1280;21974;-63
2023/07/30 04:04:44;;;;;;;9.40;3.40;;;;;;;25.59;56.74;100145.14;108433;1280;24329;-73
2023/07/30 04:07:10;;;;;;;6.00;3.30;;;;;;;25.67;57.03;100150.02;108321;1282;22035;-63
2023/07/30 04:09:36;;;;;;;8.20;3.40;;;;;;;25.75;56.88;100152.99;108346;1281;24426;-63
2023/07/30 04:12:02;;;;;;;6.50;2.70;;;;;;;25.85;56.82;100149.73;108450;1281;22448;-63
2023/07/30 04:14:27;;;;;;;10.60;4.10;;;;;;;25.95;57.01;100150.30;108431;1270;22044;-63
2023/07/30 04:16:53;;;;;;;10.30;4.10;;;;;;;26.07;57.31;100151.32;108474;1280;21982;-71
2023/07/30 04:19:19;;;;;;;19.80;4.60;;;;;;;26.19;57.42;100147.50;108445;1282;21992;-62
2023/07/30 04:21:44;;;;;;;9.90;3.90;;;;;;;26.32;57.09;100152.42;108449;1277;22686;-63
2023/07/30 04:24:10;;;;;;;17.20;4.00;;;;;;;26.43;57.05;100154.36;108424;1277;21986;-72
2023/07/30 04:26:36;;;;;;;24.00;5.00;;;;;;;26.55;57.08;100152.89;108434;1278;21988;-63
2023/07/30 04:29:01;;;;;;;14.50;4.90;;;;;;;26.65;56.73;100152.20;108450;1277;21988;-70
2023/07/30 04:31:27;;;;;;;7.10;3.00;;;;;;;26.75;56.66;100152.13;108424;1281;21981;-63
2023/07/30 04:33:52;;;;;;;13.60;3.20;;;;;;;26.85;56.36;100152.20;108458;1276;21988;-73
2023/07/30 04:36:18;;;;;;;5.90;3.00;;;;;;;26.97;56.23;100149.97;108460;1282;21985;-64
2023/07/30 04:38:43;;;;;;;5.70;3.20;;;;;;;27.08;55.92;100152.43;108461;1281;21980;-70
2023/07/30 04:41:09;;;;;;;4.60;3.20;;;;;;;27.21;55.95;100155.98;108446;1281;21989;-62
2023/07/30 04:43:34;;;;;;;12.20;3.10;;;;;;;27.33;55.46;100155.86;108460;1281;21981;-63
2023/07/30 04:46:00;;;;;;;5.80;2.80;;;;;;;27.44;55.03;100156.56;108432;1281;21981;-63
2023/07/30 04:48:26;;;;;;;5.90;3.20;;;;;;;27.57;55.00;100150.95;108475;1273;21991;-71
2023/07/30 04:50:52;;;;;;;10.40;2.90;;;;;;;27.72;54.76;100149.27;108420;1281;21983;-64
2023/07/30 04:53:18;;;;;;;6.00;2.80;;;;;;;27.86;54.32;100148.42;108443;1281;21988;-64
2023/07/30 04:55:44;;;;;;;6.00;3.00;;;;;;;28.00;54.02;100149.16;108455;1282;21998;-71
2023/07/30 04:58:09;;;;;;;7.60;3.10;;;;;;;28.14;53.69;100147.36;108464;1270;21971;-71
2023/07/30 05:00:35;;;;;;;4.60;3.20;;;;;;;28.28;53.39;100148.97;108457;1281;21980;-71
2023/07/30 05:03:00;;;;;;;4.70;2.70;;;;;;;28.43;53.07;100149.68;108450;1275;22014;-65
2023/07/30 05:05:26;;;;;;;5.00;2.80;;;;;;;28.56;52.67;100148.31;108442;1281;21979;-71
2023/07/30 05:07:51;;;;;;;3.50;2.40;;;;;;;28.70;52.69;100149.91;108407;1281;21978;-63
2023/07/30 05:10:17;;;;;;;6.20;2.90;;;;;;;28.82;52.38;100151.14;108476;1277;22017;-70
2023/07/30 05:12:43;;;;;;;3.60;2.60;;;;;;;28.97;52.18;100152.66;108384;1277;22030;-63
2023/07/30 05:15:08;;;;;;;5.20;2.70;;;;;;;29.13;51.78;100150.11;108391;1282;21983;-63
2023/07/30 05:17:34;;;;;;;7.40;3.10;;;;;;;29.32;51.53;100150.15;108380;1280;22184;-69
2023/07/30 05:20:00;;;;;;;4.10;2.90;;;;;;;29.49;51.64;100152.35;108380;1280;22161;-63
2023/07/30 05:22:25;;;;;;;4.30;3.00;;;;;;;29.77;51.73;100148.56;108372;1281;21981;-71
2023/07/30 05:24:51;;;;;;;5.90;3.20;;;;;;;30.04;51.24;100151.95;108266;1276;21984;-70
2023/07/30 05:27:16;;;;;;;5.50;2.70;;;;;;;30.26;51.06;100156.26;108463;1281;21989;-70
2023/07/30 05:29:42;;;;;;;4.70;3.40;;;;;;;30.45;49.98;100157.34;108480;1277;21989;-63
2023/07/30 05:32:08;;;;;;;4.00;2.70;;;;;;;30.59;49.65;100157.77;108432;1273;21982;-63
2023/07/30 05:34:34;;;;;;;3.90;2.60;;;;;;;30.75;49.42;100155.48;108448;1281;21986;-71
2023/07/30 05:37:00;;;;;;;6.20;2.90;;;;;;;30.87;48.99;100152.61;108224;1280;21987;-63
2023/07/30 05:39:26;;;;;;;5.40;2.80;;;;;;;31.02;48.83;100146.73;108471;1277;21990;-71
2023/07/30 05:41:51;;;;;;;6.20;2.80;;;;;;;31.20;48.23;100141.69;108381;1282;21990;-70
2023/07/30 05:44:17;;;;;;;7.30;3.00;;;;;;;31.37;47.68;100140.78;108422;1277;21979;-64
2023/07/30 05:46:43;;;;;;;4.60;2.80;;;;;;;31.53;47.53;100137.71;108448;1277;21995;-64
2023/07/30 05:49:08;;;;;;;4.50;3.10;;;;;;;31.65;47.28;100136.25;108450;1277;22019;-71
2023/07/30 05:51:34;;;;;;;5.80;3.30;;;;;;;31.74;46.93;100133.73;108260;1281;22178;-64
2023/07/30 05:54:00;;;;;;;6.30;3.30;;;;;;;31.83;46.93;100131.90;108470;1281;22020;-63
2023/07/30 05:56:25;;;;;;;3.80;2.60;;;;;;;31.97;46.56;100134.02;108402;1282;21994;-66
2023/07/30 05:58:51;;;;;;;6.20;3.00;;;;;;;32.08;45.24;100135.52;108419;1276;21983;-63
2023/07/30 06:01:17;;;;;;;4.40;2.70;;;;;;;32.16;45.75;100135.64;108479;1276;21979;-67
2023/07/30 06:03:42;;;;;;;5.00;2.90;;;;;;;32.25;44.90;100133.97;108505;1276;22451;-66
2023/07/30 06:06:08;;;;;;;6.70;2.70;;;;;;;32.34;44.99;100129.04;108394;1282;22033;-65
2023/07/30 06:08:33;;;;;;;3.70;2.70;;;;;;;32.46;44.76;100130.83;108360;1278;22154;-64
2023/07/30 06:11:03;;;;;;;4.30;2.90;;;;;;;32.62;44.77;100130.84;108415;1276;21981;-70
2023/07/30 06:13:29;;;;;;;4.60;2.70;;;;;;;32.83;45.13;100132.20;108490;1281;21990;-72
2023/07/30 06:15:55;;;;;;;5.10;2.70;;;;;;;33.02;44.41;100133.02;108441;1276;21988;-64
2023/07/30 06:18:21;;;;;;;5.10;2.70;;;;;;;33.11;43.64;100132.76;108502;1282;21988;-71
2023/07/30 06:20:46;;;;;;;4.40;2.60;;;;;;;33.25;43.64;100131.54;108490;1277;22076;-64
2023/07/30 06:23:12;;;;;;;8.50;2.60;;;;;;;33.44;43.85;100130.73;108383;1278;21990;-64
2023/07/30 06:25:37;;;;;;;3.50;2.30;;;;;;;33.63;43.65;100132.04;108387;1280;21991;-71
2023/07/30 06:28:04;;;;;;;4.90;2.40;;;;;;;33.81;43.15;100124.33;108158;1282;21987;-71
2023/07/30 06:30:30;;;;;;;3.90;2.60;;;;;;;34.03;42.92;100129.26;108394;1282;22040;-72
2023/07/30 06:32:56;;;;;;;7.30;2.40;;;;;;;34.24;42.33;100130.30;108280;1277;22024;-64
2023/07/30 06:35:21;;;;;;;3.70;2.20;;;;;;;34.40;42.09;100130.48;108423;1280;21981;-64
2023/07/30 06:37:47;;;;;;;2.70;1.80;;;;;;;34.55;41.34;100129.50;108457;1281;21987;-64
2023/07/30 06:40:12;;;;;;;4.20;2.30;;;;;;;34.60;40.26;100128.48;108434;1277;21985;-65
2023/07/30 06:42:38;;;;;;;4.60;1.90;;;;;;;34.67;40.88;100126.70;108465;1282;21986;-64
2023/07/30 06:45:05;;;;;;;7.90;2.20;;;;;;;34.82;40.64;100126.81;108470;1281;22009;-72
2023/07/30 06:47:31;;;;;;;6.60;2.30;;;;;;;35.00;40.54;100129.20;108488;1276;21989;-71
2023/07/30 06:49:57;;;;;;;3.40;2.20;;;;;;;35.16;40.29;100130.51;108218;1282;21984;-65
2023/07/30 06:52:22;;;;;;;4.20;2.20;;;;;;;35.25;39.65;100126.65;108579;1281;21988;-65
2023/07/30 06:54:48;;;;;;;8.00;2.30;;;;;;;35.34;39.66;100129.86;108577;1277;23065;-71
2023/07/30 06:57:14;;;;;;;3.50;2.10;;;;;;;35.45;38.37;100131.33;108542;1281;22257;-73
2023/07/30 06:59:40;;;;;;;7.70;2.50;;;;;;;35.51;38.59;100129.73;108494;1277;21979;-63
2023/07/30 07:02:06;;;;;;;3.40;2.10;;;;;;;35.59;38.51;100126.74;109341;1280;21897;-65
2023/07/30 07:04:31;;;;;;;6.00;2.80;;;;;;;35.76;38.17;100129.44;108799;1280;23804;-71
2023/07/30 07:06:57;;;;;;;6.40;2.10;;;;;;;35.97;38.38;100126.64;108415;1280;23047;-70
2023/07/30 07:09:22;;;;;;;5.30;2.20;;;;;;;36.21;37.87;100128.44;108371;1274;22267;-68
2023/07/30 07:11:48;;;;;;;4.60;2.30;;;;;;;36.41;37.43;100125.40;108384;1278;21997;-70
2023/07/30 07:14:14;;;;;;;7.70;3.90;;;;;;;36.51;37.46;100118.83;108386;1281;22011;-70
2023/07/30 07:16:39;;;;;;;4.30;2.50;;;;;;;36.58;36.20;100114.68;108356;1280;22021;-70
2023/07/30 07:19:06;;;;;;;4.00;2.00;;;;;;;36.59;35.43;100111.73;108407;1273;21983;-64
2023/07/30 07:21:31;;;;;;;9.10;4.60;;;;;;;36.61;35.04;100112.19;108373;1277;21996;-70
2023/07/30 07:23:57;;;;;;;5.00;2.60;;;;;;;36.64;35.41;100111.95;108408;1273;21983;-65
2023/07/30 07:26:22;;;;;;;5.10;2.40;;;;;;;36.68;35.12;100111.19;108392;1276;21989;-64
2023/07/30 07:28:48;;;;;;;5.90;2.10;;;;;;;36.82;35.33;100105.01;108382;1282;22027;-63
2023/07/30 07:31:13;;;;;;;14.00;7.70;;;;;;;37.01;35.74;100101.98;108353;1275;21983;-64
2023/07/30 07:33:39;;;;;;;4.80;2.90;;;;;;;37.17;35.47;100104.08;108393;1282;21982;-68
2023/07/30 07:36:06;;;;;;;6.10;3.50;;;;;;;37.33;34.97;100101.59;108343;1282;21984;-69
2023/07/30 07:38:32;;;;;;;22.70;9.00;;;;;;;37.52;34.36;100103.12;108398;1277;22045;-70
2023/07/30 07:40:59;;;;;;;19.50;16.50;;;;;;;37.73;33.65;100100.46;108428;1281;21983;-70
2023/07/30 07:43:25;;;;;;;9.10;5.30;;;;;;;37.91;33.74;100101.48;108378;1282;21985;-69
2023/07/30 07:45:50;;;;;;;4.10;2.50;;;;;;;38.01;33.53;100101.31;108356;1277;21995;-70
2023/07/30 07:48:16;;;;;;;4.00;2.50;;;;;;;38.06;32.40;100096.34;108339;1282;22159;-70
2023/07/30 07:50:41;;;;;;;4.90;2.50;;;;;;;38.09;32.87;100096.00;108360;1280;21942;-69
2023/07/30 07:53:07;;;;;;;3.80;2.40;;;;;;;38.16;33.27;100095.44;108373;1273;21989;-63
2023/07/30 07:55:33;;;;;;;43.20;4.50;;;;;;;38.25;32.96;100092.16;108333;1273;21989;-67
2023/07/30 07:57:58;;;;;;;5.60;1.70;;;;;;;38.34;32.35;100094.63;108381;1282;21992;-66
2023/07/30 08:00:24;;;;;;;3.40;2.30;;;;;;;38.43;32.80;100096.23;108361;1277;21988;-74
2023/07/30 08:02:50;;;;;;;3.50;2.40;;;;;;;38.43;31.64;100090.52;108220;1275;21988;-65
2023/07/30 08:05:16;;;;;;;3.40;2.10;;;;;;;38.43;31.02;100087.69;108249;1282;21980;-76
2023/07/30 08:07:41;;;;;;;3.90;2.30;;;;;;;38.40;30.08;100083.02;108370;1282;22457;-62
2023/07/30 08:10:07;;;;;;;3.30;2.00;;;;;;;38.45;30.43;100079.61;108357;1282;21988;-62
2023/07/30 08:12:33;;;;;;;4.40;1.90;;;;;;;38.63;30.85;100078.90;108526;1281;21980;-76
2023/07/30 08:14:58;;;;;;;2.30;1.70;;;;;;;38.77;30.30;100076.02;108224;1278;22241;-77
2023/07/30 08:17:25;;;;;;;4.50;1.90;;;;;;;38.88;30.46;100074.45;108483;1281;21980;-62
2023/07/30 08:19:50;;;;;;;4.40;2.00;;;;;;;39.07;30.60;100071.77;108451;1278;21987;-62
2023/07/30 08:22:16;;;;;;;2.30;1.70;;;;;;;39.18;30.20;100072.92;108473;1277;21983;-77
2023/07/30 08:24:41;;;;;;;3.30;1.90;;;;;;;39.26;29.55;100069.66;108490;1281;21988;-76
2023/07/30 08:27:07;;;;;;;5.20;1.90;;;;;;;39.31;29.49;100066.94;108521;1270;21989;-62
2023/07/30 08:29:34;;;;;;;5.40;1.90;;;;;;;39.37;29.71;100067.06;108468;1281;21986;-66
2023/07/30 08:31:59;;;;;;;3.90;1.90;;;;;;;39.51;29.30;100066.58;108494;1281;21983;-68
2023/07/30 08:34:25;;;;;;;4.10;2.00;;;;;;;39.63;28.72;100064.72;108489;1280;21989;-65
2023/07/30 08:36:50;;;;;;;2.80;2.20;;;;;;;39.66;28.82;100063.13;108453;1281;22097;-62
2023/07/30 08:39:16;;;;;;;6.10;2.50;;;;;;;39.67;28.93;100058.42;108458;1281;21997;-65
2023/07/30 08:41:42;;;;;;;5.10;2.10;;;;;;;39.69;28.92;100051.17;108476;1276;21988;-63
2023/07/30 08:44:07;;;;;;;5.20;1.80;;;;;;;39.81;28.57;100053.67;108438;1281;22461;-66
2023/07/30 08:46:34;;;;;;;3.60;1.90;;;;;;;40.04;28.76;100060.11;108197;1281;21983;-68
2023/07/30 08:48:59;;;;;;;4.90;1.90;;;;;;;40.15;27.78;100065.23;108496;1281;24987;-65
2023/07/30 08:51:25;;;;;;;3.50;1.70;;;;;;;40.18;27.90;100061.41;108232;1277;21993;-66
2023/07/30 08:53:51;;;;;;;2.90;1.90;;;;;;;40.18;28.31;100064.10;108468;1281;22023;-63
2023/07/30 08:56:17;;;;;;;9.40;2.20;;;;;;;40.29;27.86;100070.40;108470;1277;21993;-66
2023/07/30 08:58:43;;;;;;;5.20;2.00;;;;;;;40.37;27.72;100068.40;108455;1276;21993;-66
2023/07/30 09:01:10;;;;;;;4.50;2.10;;;;;;;40.51;28.08;100066.25;108593;1282;21984;-63
2023/07/30 09:03:40;;;;;;;5.10;4.30;;;;;;;40.59;27.02;100063.42;108424;1277;22006;-67
2023/07/30 09:06:07;;;;;;;5.60;2.80;;;;;;;40.64;27.34;100064.61;108337;1275;22021;-66
2023/07/30 09:08:32;;;;;;;6.10;3.60;;;;;;;40.55;27.70;100062.48;108388;1282;21982;-62
2023/07/30 09:11:11;;;;;;;3.70;2.20;;;;;;;40.51;28.24;100061.92;108367;1277;21994;-62
2023/07/30 09:13:41;;;;;;;5.20;2.00;;;;;;;40.51;27.78;100057.75;108371;1282;21992;-62
2023/07/30 09:16:13;;;;;;;10.40;2.20;;;;;;;40.51;27.79;100058.73;108392;1278;22002;-69
2023/07/30 09:18:43;;;;;;;5.40;2.50;;;;;;;40.53;27.75;100062.98;108398;1281;21984;-62
2023/07/30 09:21:10;;;;;;;6.70;2.40;;;;;;;40.53;27.56;100057.36;108368;1280;21987;-68
2023/07/30 09:23:40;;;;;;;2.90;2.00;;;;;;;40.56;27.35;100055.14;108354;1282;21987;-62
2023/07/30 09:26:06;;;;;;;2.90;1.90;;;;;;;40.62;27.79;100054.67;108409;1282;21995;-70
2023/07/30 09:28:31;;;;;;;3.50;2.00;;;;;;;40.69;27.36;100054.05;108367;1279;21994;-62
2023/07/30 09:31:01;;;;;;;4.50;2.00;;;;;;;40.51;27.50;100053.98;108363;1282;21951;-69
2023/07/30 09:33:27;;;;;;;3.20;2.10;;;;;;;40.27;27.73;100051.41;108368;1277;22015;-60
2023/07/30 09:35:53;;;;;;;11.00;2.30;;;;;;;40.16;27.41;100050.37;108358;1277;21961;-62
2023/07/30 09:38:19;;;;;;;2.70;2.00;;;;;;;40.22;27.92;100050.64;108437;1282;22013;-70
2023/07/30 09:40:49;;;;;;;6.40;2.30;;;;;;;40.34;27.04;100048.91;108332;1282;22006;-65
2023/07/30 09:43:15;;;;;;;3.20;1.70;;;;;;;40.45;26.75;100050.30;108365;1282;22103;-71
2023/07/30 09:45:43;;;;;;;4.10;2.20;;;;;;;40.49;26.53;100045.90;108411;1282;21992;-61
2023/07/30 09:48:09;;;;;;;3.00;2.00;;;;;;;40.58;26.64;100043.90;108247;1282;21994;-62
2023/07/30 09:50:36;;;;;;;2.40;2.10;;;;;;;40.66;26.58;100034.59;108377;1283;21999;-68
2023/07/30 09:53:01;;;;;;;5.40;1.90;;;;;;;40.68;25.19;100033.36;108389;1280;22019;-69
2023/07/30 09:55:27;;;;;;;4.40;1.80;;;;;;;40.73;25.50;100033.10;108361;1282;21989;-64
2023/07/30 09:57:53;;;;;;;5.80;1.80;;;;;;;40.93;25.58;100028.80;108373;1282;22026;-62
2023/07/30 10:00:19;;;;;;;3.10;1.80;;;;;;;40.96;24.79;100030.25;108408;1277;21990;-61
2023/07/30 10:02:46;;;;;;;2.20;1.80;;;;;;;41.04;25.01;100026.17;108271;1281;22200;-66
2023/07/30 10:05:15;;;;;;;5.90;1.90;;;;;;;41.28;25.70;100020.86;108464;1271;21997;-66
2023/07/30 10:07:44;;;;;;;2.60;1.80;;;;;;;41.43;24.72;100016.01;108502;1282;23640;-61
2023/07/30 10:10:10;;;;;;;6.70;3.80;;;;;;;41.40;25.00;100011.27;108436;1273;21989;-61
2023/07/30 10:12:35;;;;;;;4.60;2.20;;;;;;;41.35;25.24;100003.52;108143;1280;22007;-61
2023/07/30 10:15:01;;;;;;;5.20;2.20;;;;;;;41.33;24.75;100004.23;108129;1282;21989;-60
2023/07/30 10:17:28;;;;;;;3.30;2.00;;;;;;;41.36;25.26;99999.44;108350;1270;21984;-64
2023/07/30 10:19:54;;;;;;;2.50;1.80;;;;;;;41.54;25.47;99996.83;108215;1277;21986;-60
2023/07/30 10:22:24;;;;;;;4.70;2.10;;;;;;;41.62;24.93;99996.95;108142;1275;21973;-66
2023/07/30 10:25:02;;;;;;;4.20;2.30;;;;;;;41.34;24.29;99996.32;108376;1282;21984;-66
2023/07/30 10:27:36;;;;;;;3.80;1.90;;;;;;;40.87;24.00;100003.16;108395;1282;23718;-66
2023/07/30 10:30:08;;;;;;;4.20;2.20;;;;;;;40.38;24.63;100006.84;108369;1280;22014;-60
2023/07/30 10:32:42;;;;;;;4.50;2.10;;;;;;;39.98;25.10;100003.91;108443;1281;21993;-67
2023/07/30 10:35:08;;;;;;;6.10;2.00;;;;;;;39.61;25.35;100000.89;108414;1273;21991;-60
2023/07/30 10:37:34;;;;;;;9.80;2.20;;;;;;;39.24;25.27;100004.42;108456;1281;21989;-67
2023/07/30 10:39:59;;;;;;;5.80;1.90;;;;;;;38.91;25.80;99999.05;108443;1278;21990;-67
2023/07/30 10:42:34;;;;;;;4.90;2.30;;;;;;;38.70;26.07;99996.11;108443;1278;21996;-67
2023/07/30 10:44:59;;;;;;;5.70;2.10;;;;;;;38.55;26.57;99993.00;108415;1281;22025;-66
2023/07/30 10:47:27;;;;;;;4.50;2.00;;;;;;;38.37;26.15;99993.63;108387;1281;21996;-67
2023/07/30 10:49:53;;;;;;;4.80;2.30;;;;;;;38.13;26.09;99989.42;108432;1281;21991;-67
2023/07/30 10:52:21;;;;;;;7.30;2.20;;;;;;;38.00;26.55;99983.45;108399;1277;21998;-60
2023/07/30 10:54:47;;;;;;;3.50;1.80;;;;;;;38.02;26.81;99986.59;108220;1280;22118;-65
2023/07/30 10:57:13;;;;;;;2.40;1.80;;;;;;;38.08;26.65;99988.29;108371;1282;21983;-67
2023/07/30 10:59:39;;;;;;;4.30;2.30;;;;;;;38.24;26.79;99985.67;108232;1282;23712;-61
2023/07/30 11:02:04;;;;;;;2.60;1.70;;;;;;;38.44;26.79;99978.20;108177;1277;23722;-64
2023/07/30 11:04:33;;;;;;;3.90;2.00;;;;;;;38.68;25.97;99972.89;108364;1282;22184;-61
2023/07/30 11:06:59;;;;;;;4.40;2.20;;;;;;;38.91;25.53;99971.94;108157;1280;22958;-60
2023/07/30 11:09:26;;;;;;;3.00;2.00;;;;;;;39.19;25.53;99969.98;108370;1274;21980;-67
2023/07/30 11:11:52;;;;;;;4.50;2.00;;;;;;;39.60;25.64;99965.33;108472;1271;21986;-60